Welcome to Northern Hawkes Bay. New Zealand.
PWS Header
      nz Flag



Hit Counter


W3C Valid W3C Valid logo


    Wairoa

Select any of the Stations below to visit their websites.










Historic Data from Weather Underground
Select the location of interest below. Wairoa is the default. Please have patience, this Data is slow to load in.
Northern Hawkes Bay Historical Data
Daily Summary for January 22, 2017 Units:  Metric    English   Both
« Previous Day
Next Day »
Daily Weekly Monthly Yearly Custom
  High: Low: Average:
Temperature: 27.9 °C 15.8 °C 21.3 °C
Dew Point: 17.8 °C 8.7 °C 11.9 °C
Humidity: 82% 33% 57%
Wind Speed: 35.6km/h 2.6km/h 16.7km/h
Wind Gust: 63.7km/h - -
Wind- - SSW
Pressure: 1006.7 hPa 989.1 hPa -
Precipitation: 0.3 mm    
Historical Graphs
 
 
Tabular Data for January 22, 2017
Time Temperature Dew Point Pressure Wind Wind Speed Wind Gust Humidity Rainfall Rate (Hourly) solar
00:03 18.0 °C 11.1 °C 1006.7 hPa NE 9.7 km/h 21.9 km/h 64% 0.0 mm 0 W/m2
00:08 17.6 °C 10.9 °C 1006.7 hPa NE 5.0 km/h 21.9 km/h 65% 0.0 mm 0 W/m2
00:13 17.3 °C 11.3 °C 1006.7 hPa NE 11.1 km/h 18.3 km/h 68% 0.0 mm 0 W/m2
00:18 17.1 °C 11.4 °C 1006.3 hPa ENE 12.2 km/h 20.9 km/h 69% 0.3 mm 0 W/m2
00:23 16.9 °C 11.8 °C 1006.3 hPa ENE 8.7 km/h 20.9 km/h 72% 0.3 mm 0 W/m2
00:28 16.7 °C 12.1 °C 1006.3 hPa NE 7.2 km/h 14.8 km/h 74% 0.3 mm 0 W/m2
00:33 16.5 °C 12.1 °C 1006.0 hPa NE 7.2 km/h 14.8 km/h 75% 0.3 mm 0 W/m2
00:39 16.5 °C 11.8 °C 1006.0 hPa ENE 12.2 km/h 15.8 km/h 74% 0.3 mm 0 W/m2
00:44 16.6 °C 11.9 °C 1006.0 hPa ENE 9.7 km/h 17.2 km/h 74% 0.3 mm 0 W/m2
00:49 16.5 °C 11.8 °C 1005.6 hPa ENE 8.7 km/h 17.2 km/h 74% 0.3 mm 0 W/m2
00:54 16.4 °C 12.4 °C 1005.6 hPa ENE 12.2 km/h 21.9 km/h 77% 0.3 mm 0 W/m2
00:59 16.2 °C 12.4 °C 1005.6 hPa ENE 13.4 km/h 21.9 km/h 78% 0.3 mm 0 W/m2
01:04 16.0 °C 12.4 °C 1005.3 hPa ENE 7.2 km/h 21.9 km/h 79% 0.3 mm 0 W/m2
01:09 15.9 °C 12.8 °C 1005.0 hPa ENE 14.8 km/h 21.9 km/h 82% 0.3 mm 0 W/m2
01:14 15.9 °C 12.8 °C 1005.3 hPa NE 9.7 km/h 18.3 km/h 82% 0.3 mm 0 W/m2
01:19 15.8 °C 12.7 °C 1005.0 hPa NE 9.7 km/h 18.3 km/h 82% 0.0 mm 0 W/m2
01:24 15.9 °C 12.7 °C 1004.6 hPa ENE 8.7 km/h 19.5 km/h 81% 0.0 mm 0 W/m2
01:29 15.9 °C 12.4 °C 1004.6 hPa NE 8.7 km/h 19.5 km/h 80% 0.0 mm 0 W/m2
01:34 16.1 °C 12.3 °C 1004.6 hPa ENE 8.7 km/h 18.3 km/h 78% 0.0 mm 0 W/m2
01:39 16.3 °C 12.1 °C 1004.6 hPa ENE 13.4 km/h 18.3 km/h 76% 0.0 mm 0 W/m2
01:44 16.3 °C 11.9 °C 1004.3 hPa ENE 12.2 km/h 18.3 km/h 75% 0.0 mm 0 W/m2
01:49 16.3 °C 11.7 °C 1004.3 hPa ENE 13.4 km/h 20.9 km/h 74% 0.0 mm 0 W/m2
01:54 16.3 °C 11.7 °C 1003.9 hPa NE 12.2 km/h 23.3 km/h 74% 0.0 mm 0 W/m2
01:59 16.5 °C 11.7 °C 1003.9 hPa NE 12.2 km/h 23.3 km/h 73% 0.0 mm 0 W/m2
02:04 16.6 °C 11.6 °C 1003.6 hPa ENE 12.2 km/h 21.9 km/h 72% 0.0 mm 0 W/m2
02:09 16.7 °C 11.2 °C 1003.9 hPa ENE 12.2 km/h 19.5 km/h 70% 0.0 mm 0 W/m2
02:14 16.9 °C 11.2 °C 1003.6 hPa ENE 13.4 km/h 25.6 km/h 69% 0.0 mm 0 W/m2
02:19 17.0 °C 11.1 °C 1003.6 hPa ENE 12.2 km/h 25.6 km/h 68% 0.0 mm 0 W/m2
02:24 17.0 °C 11.1 °C 1003.3 hPa East 12.2 km/h 20.9 km/h 68% 0.0 mm 0 W/m2
02:29 17.2 °C 10.8 °C 1002.9 hPa ENE 13.4 km/h 25.6 km/h 66% 0.0 mm 0 W/m2
02:34 17.3 °C 10.9 °C 1002.9 hPa East 15.8 km/h 25.6 km/h 66% 0.0 mm 0 W/m2
02:39 17.3 °C 10.9 °C 1002.9 hPa East 11.1 km/h 24.5 km/h 66% 0.0 mm 0 W/m2
02:44 17.1 °C 11.2 °C 1002.6 hPa East 8.7 km/h 23.3 km/h 68% 0.0 mm 0 W/m2
02:49 17.0 °C 11.3 °C 1002.6 hPa East 12.2 km/h 20.9 km/h 69% 0.0 mm 0 W/m2
02:54 17.0 °C 11.5 °C 1002.3 hPa ENE 8.7 km/h 20.9 km/h 70% 0.0 mm 0 W/m2
02:59 16.9 °C 11.6 °C 1001.9 hPa East 7.2 km/h 18.3 km/h 71% 0.0 mm 0 W/m2
03:04 16.9 °C 11.6 °C 1001.9 hPa East 9.7 km/h 17.2 km/h 71% 0.0 mm 0 W/m2
03:09 16.8 °C 11.9 °C 1001.9 hPa East 7.2 km/h 17.2 km/h 73% 0.0 mm 0 W/m2
03:14 16.5 °C 11.7 °C 1001.6 hPa ENE 11.1 km/h 17.2 km/h 73% 0.0 mm 0 W/m2
03:19 16.6 °C 11.7 °C 1001.6 hPa ENE 11.1 km/h 14.8 km/h 73% 0.0 mm 0 W/m2
03:24 16.8 °C 11.7 °C 1001.6 hPa ENE 9.7 km/h 14.8 km/h 72% 0.0 mm 0 W/m2
03:29 16.9 °C 11.8 °C 1001.2 hPa ENE 12.2 km/h 17.2 km/h 72% 0.0 mm 0 W/m2
03:34 17.0 °C 11.3 °C 1001.2 hPa ENE 7.2 km/h 17.2 km/h 69% 0.0 mm 0 W/m2
03:39 17.1 °C 11.2 °C 1000.9 hPa NE 6.1 km/h 18.3 km/h 68% 0.0 mm 0 W/m2
03:44 17.2 °C 11.0 °C 1000.6 hPa NE 9.7 km/h 18.3 km/h 67% 0.0 mm 0 W/m2
03:49 17.2 °C 11.3 °C 1000.6 hPa NE 8.7 km/h 18.3 km/h 68% 0.0 mm 0 W/m2
03:54 17.2 °C 11.3 °C 1000.6 hPa NE 7.2 km/h 18.3 km/h 68% 0.0 mm 0 W/m2
03:59 17.3 °C 10.9 °C 999.9 hPa NE 5.0 km/h 17.2 km/h 66% 0.0 mm 0 W/m2
04:04 17.5 °C 10.8 °C 999.9 hPa NE 8.7 km/h 17.2 km/h 65% 0.0 mm 0 W/m2
04:09 17.9 °C 10.8 °C 999.5 hPa NE 8.7 km/h 15.8 km/h 63% 0.0 mm 0 W/m2
04:14 18.2 °C 11.1 °C 999.5 hPa NE 13.4 km/h 19.5 km/h 63% 0.0 mm 0 W/m2
04:19 18.3 °C 10.9 °C 999.5 hPa NE 8.7 km/h 19.5 km/h 62% 0.0 mm 0 W/m2
04:24 18.5 °C 10.8 °C 999.5 hPa ENE 11.1 km/h 18.3 km/h 61% 0.0 mm 0 W/m2
04:29 18.5 °C 10.8 °C 999.5 hPa NE 7.2 km/h 17.2 km/h 61% 0.0 mm 0 W/m2
04:34 18.6 °C 10.7 °C 999.2 hPa NE 13.4 km/h 18.3 km/h 60% 0.0 mm 0 W/m2
04:39 18.8 °C 10.9 °C 999.2 hPa NE 6.1 km/h 18.3 km/h 60% 0.0 mm 0 W/m2
04:44 18.9 °C 11.0 °C 998.9 hPa NE 7.2 km/h 18.3 km/h 60% 0.0 mm 0 W/m2
04:49 18.9 °C 11.0 °C 998.9 hPa ENE 7.2 km/h 18.3 km/h 60% 0.0 mm 0 W/m2
04:54 18.9 °C 11.0 °C 998.9 hPa ENE 8.7 km/h 18.3 km/h 60% 0.0 mm 0 W/m2
04:59 18.8 °C 10.9 °C 998.5 hPa ENE 8.7 km/h 18.3 km/h 60% 0.0 mm 0 W/m2
05:04 18.9 °C 11.2 °C 998.2 hPa ENE 11.1 km/h 15.8 km/h 61% 0.0 mm 0 W/m2
05:09 18.9 °C 11.2 °C 998.2 hPa NE 7.2 km/h 17.2 km/h 61% 0.0 mm 0 W/m2
05:14 18.9 °C 11.4 °C 997.9 hPa NE 11.1 km/h 17.2 km/h 62% 0.0 mm 0 W/m2
05:19 18.8 °C 11.6 °C 997.9 hPa NE 2.6 km/h 14.8 km/h 63% 0.0 mm 0 W/m2
05:24 18.8 °C 11.8 °C 997.5 hPa NE 9.7 km/h 20.9 km/h 64% 0.0 mm 0 W/m2
05:29 18.9 °C 11.9 °C 997.5 hPa NE 6.1 km/h 20.9 km/h 64% 0.0 mm 0 W/m2
05:34 18.8 °C 12.1 °C 997.2 hPa NNE 11.1 km/h 17.2 km/h 65% 0.0 mm 0 W/m2
05:39 18.9 °C 12.4 °C 997.2 hPa NE 7.2 km/h 25.6 km/h 66% 0.0 mm 0 W/m2
05:44 18.9 °C 12.4 °C 997.2 hPa NE 6.1 km/h 25.6 km/h 66% 0.0 mm 0 W/m2
05:49 18.8 °C 12.3 °C 996.8 hPa NNE 8.7 km/h 20.9 km/h 66% 0.0 mm 0 W/m2
05:54 19.2 °C 12.5 °C 996.5 hPa NE 14.8 km/h 33.1 km/h 65% 0.0 mm 0 W/m2
05:59 19.6 °C 12.8 °C 996.5 hPa NNE 29.4 km/h 46.5 km/h 65% 0.0 mm 0 W/m2
06:04 19.9 °C 13.1 °C 996.2 hPa NNE 15.8 km/h 46.5 km/h 65% 0.0 mm 0 W/m2
06:09 19.9 °C 13.1 °C 996.2 hPa NE 11.1 km/h 46.5 km/h 65% 0.0 mm 0 W/m2
06:14 19.9 °C 13.1 °C 996.2 hPa NE 12.2 km/h 47.9 km/h 65% 0.0 mm 1 W/m2
06:19 19.9 °C 13.1 °C 995.8 hPa NNE 18.3 km/h 47.9 km/h 65% 0.0 mm 4 W/m2
06:24 19.9 °C 13.1 °C 995.8 hPa NNE 23.3 km/h 40.4 km/h 65% 0.0 mm 6 W/m2
06:29 20.1 °C 13.1 °C 995.8 hPa NE 19.5 km/h 39.3 km/h 64% 0.0 mm 10 W/m2
06:34 20.1 °C 13.1 °C 995.5 hPa NE 15.8 km/h 41.7 km/h 64% 0.0 mm 18 W/m2
06:39 20.1 °C 13.1 °C 995.5 hPa NNE 13.4 km/h 41.7 km/h 64% 0.0 mm 27 W/m2
06:44 20.1 °C 13.3 °C 995.5 hPa NE 15.8 km/h 34.3 km/h 65% 0.0 mm 37 W/m2
06:49 20.2 °C 13.4 °C 995.5 hPa NE 21.9 km/h 37.8 km/h 65% 0.0 mm 40 W/m2
06:54 20.2 °C 13.4 °C 995.1 hPa NE 13.4 km/h 37.8 km/h 65% 0.0 mm 37 W/m2
07:14 20.3 °C 13.8 °C 994.5 hPa NE 21.9 km/h 36.7 km/h 66% 0.0 mm 60 W/m2
07:19 20.3 °C 14.0 °C 994.1 hPa NE 12.2 km/h 42.8 km/h 67% 0.0 mm 59 W/m2
07:24 20.3 °C 14.0 °C 994.1 hPa NNE 14.8 km/h 42.8 km/h 67% 0.0 mm 49 W/m2
07:29 20.4 °C 14.1 °C 994.1 hPa NE 19.5 km/h 39.3 km/h 67% 0.0 mm 76 W/m2
07:34 20.5 °C 14.4 °C 994.1 hPa NE 12.2 km/h 36.7 km/h 68% 0.0 mm 83 W/m2
07:39 20.5 °C 14.4 °C 993.8 hPa NE 13.4 km/h 30.6 km/h 68% 0.0 mm 80 W/m2
07:44 20.5 °C 14.4 °C 993.8 hPa NE 14.8 km/h 35.6 km/h 68% 0.0 mm 82 W/m2
07:49 20.5 °C 14.2 °C 993.5 hPa NE 12.2 km/h 35.6 km/h 67% 0.0 mm 103 W/m2
07:54 20.4 °C 14.1 °C 993.5 hPa ENE 12.2 km/h 30.6 km/h 67% 0.0 mm 145 W/m2
07:59 20.4 °C 14.1 °C 993.1 hPa NE 20.9 km/h 29.4 km/h 67% 0.0 mm 135 W/m2
08:04 20.2 °C 14.1 °C 992.8 hPa NE 19.5 km/h 34.3 km/h 68% 0.0 mm 143 W/m2
08:09 20.2 °C 14.1 °C 993.1 hPa NE 11.1 km/h 34.3 km/h 68% 0.0 mm 141 W/m2
08:14 20.1 °C 14.0 °C 992.8 hPa NE 9.7 km/h 34.3 km/h 68% 0.0 mm 141 W/m2
08:19 20.0 °C 14.2 °C 992.8 hPa NE 13.4 km/h 31.7 km/h 69% 0.0 mm 124 W/m2
08:24 20.0 °C 14.4 °C 992.4 hPa NE 12.2 km/h 30.6 km/h 70% 0.0 mm 127 W/m2
08:29 20.1 °C 14.7 °C 992.1 hPa NE 15.8 km/h 30.6 km/h 71% 0.0 mm 127 W/m2
08:34 20.5 °C 15.3 °C 991.8 hPa NE 11.1 km/h 30.6 km/h 72% 0.0 mm 127 W/m2
08:39 20.7 °C 15.3 °C 992.1 hPa NE 14.8 km/h 30.6 km/h 71% 0.0 mm 134 W/m2
08:44 21.1 °C 15.7 °C 991.4 hPa NE 20.9 km/h 31.7 km/h 71% 0.0 mm 185 W/m2
08:49 21.4 °C 15.7 °C 991.4 hPa NE 18.3 km/h 41.7 km/h 70% 0.0 mm 169 W/m2
08:54 21.7 °C 16.0 °C 991.1 hPa NE 18.3 km/h 43.9 km/h 70% 0.0 mm 340 W/m2
08:59 22.3 °C 15.9 °C 990.7 hPa NE 15.8 km/h 45.4 km/h 67% 0.0 mm 299 W/m2
09:04 22.6 °C 16.2 °C 990.7 hPa NE 24.5 km/h 45.4 km/h 67% 0.0 mm 374 W/m2
09:09 22.9 °C 16.2 °C 990.7 hPa NE 21.9 km/h 42.8 km/h 66% 0.0 mm 293 W/m2
09:14 23.0 °C 16.6 °C 990.4 hPa NE 18.3 km/h 42.8 km/h 67% 0.0 mm 266 W/m2
09:19 23.2 °C 16.5 °C 990.1 hPa NE 25.6 km/h 51.5 km/h 66% 0.0 mm 185 W/m2
09:24 23.1 °C 16.7 °C 990.1 hPa NE 14.8 km/h 51.5 km/h 67% 0.0 mm 202 W/m2
09:29 23.2 °C 16.8 °C 990.1 hPa NNE 18.3 km/h 37.8 km/h 67% 0.0 mm 238 W/m2
09:34 23.3 °C 16.8 °C 990.1 hPa NNE 20.9 km/h 39.3 km/h 67% 0.0 mm 185 W/m2
09:39 23.3 °C 16.8 °C 990.1 hPa NE 15.8 km/h 39.3 km/h 67% 0.0 mm 163 W/m2
09:44 23.3 °C 17.1 °C 990.1 hPa NE 13.4 km/h 52.6 km/h 68% 0.0 mm 150 W/m2
09:49 23.4 °C 16.9 °C 989.7 hPa NE 19.5 km/h 52.6 km/h 67% 0.0 mm 143 W/m2
09:54 23.4 °C 17.2 °C 990.1 hPa ENE 21.9 km/h 45.4 km/h 68% 0.0 mm 160 W/m2
09:59 23.8 °C 17.3 °C 989.4 hPa NE 18.3 km/h 45.4 km/h 67% 0.0 mm 256 W/m2
10:04 24.2 °C 17.4 °C 989.4 hPa NE 24.5 km/h 39.3 km/h 66% 0.0 mm 315 W/m2
10:09 24.4 °C 17.4 °C 989.4 hPa NE 31.7 km/h 46.5 km/h 65% 0.0 mm 156 W/m2
10:14 24.5 °C 17.5 °C 989.1 hPa NE 23.3 km/h 46.5 km/h 65% 0.0 mm 124 W/m2
10:19 24.8 °C 17.8 °C 989.4 hPa NE 24.5 km/h 41.7 km/h 65% 0.0 mm 166 W/m2
10:24 25.2 °C 17.7 °C 989.1 hPa NNE 19.5 km/h 40.4 km/h 63% 0.0 mm 254 W/m2
10:29 26.3 °C 16.6 °C 989.1 hPa NNE 29.4 km/h 51.5 km/h 55% 0.0 mm 211 W/m2
10:34 26.8 °C 16.7 °C 989.4 hPa North 13.4 km/h 51.5 km/h 54% 0.0 mm 125 W/m2
10:39 26.6 °C 16.3 °C 989.4 hPa NNW 15.8 km/h 46.5 km/h 53% 0.0 mm 77 W/m2
10:44 26.4 °C 16.4 °C 989.4 hPa North 20.9 km/h 33.1 km/h 54% 0.0 mm 50 W/m2
10:49 26.3 °C 16.3 °C 989.4 hPa North 15.8 km/h 30.6 km/h 54% 0.0 mm 57 W/m2
10:54 26.3 °C 16.3 °C 989.7 hPa NNW 7.2 km/h 30.6 km/h 54% 0.0 mm 67 W/m2
10:59 26.1 °C 16.1 °C 990.1 hPa NW 8.7 km/h 24.5 km/h 54% 0.0 mm 69 W/m2
11:04 25.8 °C 16.4 °C 990.1 hPa NNW 19.5 km/h 29.4 km/h 56% 0.0 mm 54 W/m2
11:09 25.2 °C 15.8 °C 990.1 hPa North 21.9 km/h 42.8 km/h 56% 0.0 mm 95 W/m2
11:14 25.0 °C 15.9 °C 990.4 hPa North 13.4 km/h 42.8 km/h 57% 0.0 mm 129 W/m2
11:19 25.0 °C 15.9 °C 990.7 hPa NNW 15.8 km/h 29.4 km/h 57% 0.0 mm 161 W/m2
11:24 24.8 °C 15.2 °C 990.7 hPa NW 35.6 km/h 47.9 km/h 55% 0.0 mm 164 W/m2
11:29 24.5 °C 14.9 °C 990.7 hPa NW 17.2 km/h 47.9 km/h 55% 0.0 mm 168 W/m2
11:34 24.4 °C 14.5 °C 991.1 hPa NW 23.3 km/h 57.6 km/h 54% 0.0 mm 312 W/m2
11:39 24.5 °C 14.6 °C 991.4 hPa NW 24.5 km/h 58.7 km/h 54% 0.0 mm 766 W/m2
11:44 24.8 °C 14.6 °C 991.4 hPa NW 20.9 km/h 58.7 km/h 53% 0.0 mm 376 W/m2
11:49 24.8 °C 14.3 °C 991.4 hPa NNW 29.4 km/h 51.5 km/h 52% 0.0 mm 323 W/m2
11:54 24.7 °C 14.2 °C 991.4 hPa NW 23.3 km/h 51.5 km/h 52% 0.0 mm 487 W/m2
11:59 24.7 °C 14.2 °C 991.4 hPa NNW 20.9 km/h 47.9 km/h 52% 0.0 mm 825 W/m2
12:04 25.2 °C 14.1 °C 991.4 hPa NNW 17.2 km/h 43.9 km/h 50% 0.0 mm 1065 W/m2
12:09 25.4 °C 14.2 °C 991.4 hPa NW 17.2 km/h 40.4 km/h 50% 0.0 mm 612 W/m2
12:14 25.8 °C 14.0 °C 991.4 hPa WNW 14.8 km/h 39.3 km/h 48% 0.0 mm 1104 W/m2
12:19 25.4 °C 13.3 °C 991.4 hPa WNW 15.8 km/h 30.6 km/h 47% 0.0 mm 257 W/m2
12:24 25.6 °C 13.2 °C 991.4 hPa NW 21.9 km/h 37.8 km/h 46% 0.0 mm 911 W/m2
12:29 25.9 °C 13.7 °C 991.8 hPa NW 15.8 km/h 37.8 km/h 47% 0.0 mm 638 W/m2
12:34 25.9 °C 13.1 °C 991.8 hPa NNW 17.2 km/h 39.3 km/h 45% 0.0 mm 1120 W/m2
12:39 26.3 °C 13.1 °C 991.8 hPa NNW 8.7 km/h 39.3 km/h 44% 0.0 mm 1076 W/m2
12:44 26.8 °C 13.2 °C 991.4 hPa NW 19.5 km/h 27.0 km/h 43% 0.0 mm 1073 W/m2
12:49 26.7 °C 13.1 °C 991.8 hPa WNW 12.2 km/h 27.0 km/h 43% 0.0 mm 283 W/m2
12:55 25.9 °C 12.4 °C 991.4 hPa NW 7.2 km/h 27.0 km/h 43% 0.0 mm 1080 W/m2
13:00 26.3 °C 11.3 °C 991.8 hPa NW 28.0 km/h 39.3 km/h 39% 0.0 mm 1036 W/m2
13:05 26.5 °C 11.1 °C 992.1 hPa NNW 20.9 km/h 39.3 km/h 38% 0.0 mm 1006 W/m2
13:10 26.5 °C 9.8 °C 991.8 hPa North 12.2 km/h 41.7 km/h 35% 0.0 mm 996 W/m2
13:15 26.7 °C 10.0 °C 991.8 hPa North 24.5 km/h 41.7 km/h 35% 0.0 mm 983 W/m2
13:20 26.9 °C 10.6 °C 991.4 hPa NNW 17.2 km/h 37.8 km/h 36% 0.0 mm 982 W/m2
13:25 26.9 °C 10.2 °C 991.4 hPa NNW 24.5 km/h 43.9 km/h 35% 0.0 mm 986 W/m2
13:30 26.7 °C 10.4 °C 991.1 hPa NW 25.6 km/h 46.5 km/h 36% 0.0 mm 265 W/m2
13:35 27.0 °C 10.3 °C 991.1 hPa NNW 9.7 km/h 46.5 km/h 35% 0.0 mm 970 W/m2
13:40 27.4 °C 9.7 °C 990.7 hPa NNW 9.7 km/h 27.0 km/h 33% 0.0 mm 977 W/m2
13:45 27.6 °C 10.8 °C 990.7 hPa NW 20.9 km/h 35.6 km/h 35% 0.0 mm 980 W/m2
13:50 27.5 °C 10.3 °C 991.1 hPa NNW 17.2 km/h 35.6 km/h 34% 0.0 mm 987 W/m2
13:55 27.3 °C 10.1 °C 990.7 hPa North 15.8 km/h 36.7 km/h 34% 0.0 mm 964 W/m2
14:00 27.9 °C 10.6 °C 990.7 hPa NNW 23.3 km/h 36.7 km/h 34% 0.0 mm 382 W/m2
14:05 27.4 °C 9.7 °C 991.1 hPa NNW 14.8 km/h 37.8 km/h 33% 0.0 mm 439 W/m2
14:10 26.8 °C 10.1 °C 991.1 hPa NNW 23.3 km/h 45.4 km/h 35% 0.0 mm 1083 W/m2
14:16 26.4 °C 10.6 °C 991.4 hPa NW 23.3 km/h 45.4 km/h 37% 0.0 mm 936 W/m2
14:21 26.2 °C 11.9 °C 991.4 hPa NW 29.4 km/h 56.2 km/h 41% 0.0 mm 897 W/m2
14:41 26.0 °C 12.5 °C 991.4 hPa NNW 21.9 km/h 43.9 km/h 43% 0.0 mm 884 W/m2
14:46 26.1 °C 12.2 °C 991.4 hPa NW 27.0 km/h 45.4 km/h 42% 0.0 mm 868 W/m2
14:51 26.0 °C 12.1 °C 991.4 hPa NW 17.2 km/h 45.4 km/h 42% 0.0 mm 865 W/m2
14:56 26.1 °C 12.2 °C 991.4 hPa NW 27.0 km/h 46.5 km/h 42% 0.0 mm 901 W/m2
15:01 26.0 °C 12.1 °C 991.4 hPa NW 19.5 km/h 46.5 km/h 42% 0.0 mm 848 W/m2
15:06 26.1 °C 10.3 °C 991.4 hPa NW 27.0 km/h 54.1 km/h 37% 0.0 mm 834 W/m2
15:11 26.3 °C 10.9 °C 991.1 hPa NNW 27.0 km/h 54.1 km/h 38% 0.0 mm 833 W/m2
15:16 26.1 °C 10.7 °C 991.4 hPa NNW 19.5 km/h 50.0 km/h 38% 0.0 mm 483 W/m2
15:21 26.2 °C 11.2 °C 991.4 hPa NNW 35.6 km/h 50.0 km/h 39% 0.0 mm 837 W/m2
15:26 26.0 °C 11.0 °C 991.1 hPa NNW 24.5 km/h 50.0 km/h 39% 0.0 mm 656 W/m2
15:31 25.8 °C 10.0 °C 991.4 hPa NW 28.0 km/h 50.0 km/h 37% 0.0 mm 915 W/m2
15:36 26.0 °C 9.8 °C 991.1 hPa NNW 29.4 km/h 62.3 km/h 36% 0.0 mm 808 W/m2
15:41 26.0 °C 10.6 °C 991.4 hPa NNW 24.5 km/h 62.3 km/h 38% 0.0 mm 190 W/m2
15:46 25.7 °C 11.5 °C 991.1 hPa NNW 20.9 km/h 45.4 km/h 41% 0.0 mm 708 W/m2
15:51 26.1 °C 11.4 °C 991.4 hPa NW 17.2 km/h 42.8 km/h 40% 0.0 mm 757 W/m2
15:56 25.9 °C 11.7 °C 991.1 hPa NW 28.0 km/h 50.0 km/h 41% 0.0 mm 646 W/m2
16:01 25.7 °C 12.2 °C 991.4 hPa NNW 27.0 km/h 63.7 km/h 43% 0.0 mm 659 W/m2
16:06 25.6 °C 11.8 °C 991.4 hPa NNW 23.3 km/h 63.7 km/h 42% 0.0 mm 714 W/m2
16:11 25.3 °C 11.5 °C 991.4 hPa NNW 33.1 km/h 47.9 km/h 42% 0.0 mm 194 W/m2
16:16 25.2 °C 11.8 °C 991.4 hPa NNW 24.5 km/h 51.5 km/h 43% 0.0 mm 685 W/m2
16:21 25.1 °C 11.3 °C 991.4 hPa NW 21.9 km/h 51.5 km/h 42% 0.0 mm 651 W/m2
16:26 25.6 °C 11.4 °C 991.4 hPa NW 17.2 km/h 41.7 km/h 41% 0.0 mm 633 W/m2
16:31 25.5 °C 10.2 °C 991.4 hPa NW 27.0 km/h 48.9 km/h 38% 0.0 mm 631 W/m2
16:36 25.4 °C 10.4 °C 991.4 hPa NW 24.5 km/h 50.0 km/h 39% 0.0 mm 597 W/m2
16:41 25.4 °C 10.4 °C 991.4 hPa NW 27.0 km/h 50.0 km/h 39% 0.0 mm 588 W/m2
16:46 25.0 °C 10.1 °C 991.4 hPa NNW 27.0 km/h 47.9 km/h 39% 0.0 mm 149 W/m2
16:51 24.5 °C 11.1 °C 991.4 hPa NW 15.8 km/h 47.9 km/h 43% 0.0 mm 592 W/m2
16:56 24.7 °C 11.3 °C 991.4 hPa NW 24.5 km/h 42.8 km/h 43% 0.0 mm 527 W/m2
17:01 24.6 °C 10.5 °C 991.4 hPa NNW 25.6 km/h 48.9 km/h 41% 0.0 mm 524 W/m2
17:06 24.6 °C 10.5 °C 991.4 hPa NNW 20.9 km/h 48.9 km/h 41% 0.0 mm 514 W/m2
17:11 24.7 °C 10.2 °C 991.4 hPa NNW 19.5 km/h 48.9 km/h 40% 0.0 mm 507 W/m2
17:16 24.6 °C 10.1 °C 991.8 hPa NNW 21.9 km/h 46.5 km/h 40% 0.0 mm 487 W/m2
17:21 25.0 °C 9.7 °C 991.4 hPa NNW 20.9 km/h 40.4 km/h 38% 0.0 mm 475 W/m2
17:26 25.1 °C 9.8 °C 991.4 hPa NNW 18.3 km/h 40.4 km/h 38% 0.0 mm 457 W/m2
17:31 24.4 °C 9.6 °C 991.8 hPa NNW 29.4 km/h 54.1 km/h 39% 0.0 mm 438 W/m2
17:36 24.0 °C 9.2 °C 991.8 hPa NNW 35.6 km/h 54.1 km/h 39% 0.0 mm 105 W/m2
17:41 23.3 °C 9.3 °C 991.8 hPa NNW 29.4 km/h 48.9 km/h 41% 0.0 mm 401 W/m2
17:46 23.8 °C 9.4 °C 991.8 hPa NNW 19.5 km/h 48.9 km/h 40% 0.0 mm 402 W/m2
17:51 23.4 °C 9.1 °C 992.1 hPa NNW 15.8 km/h 43.9 km/h 40% 0.0 mm 385 W/m2
17:56 23.5 °C 9.5 °C 991.8 hPa NNW 14.8 km/h 41.7 km/h 41% 0.0 mm 386 W/m2
18:01 23.4 °C 8.7 °C 992.1 hPa North 17.2 km/h 43.9 km/h 39% 0.0 mm 359 W/m2
18:06 23.3 °C 9.3 °C 991.8 hPa NNW 20.9 km/h 43.9 km/h 41% 0.0 mm 337 W/m2
18:11 23.0 °C 9.8 °C 991.8 hPa North 19.5 km/h 47.9 km/h 43% 0.0 mm 320 W/m2
18:16 22.5 °C 9.7 °C 992.1 hPa NNW 24.5 km/h 47.9 km/h 44% 0.0 mm 319 W/m2
18:21 22.5 °C 9.7 °C 992.1 hPa NW 20.9 km/h 39.3 km/h 44% 0.0 mm 314 W/m2
18:26 22.3 °C 10.1 °C 991.8 hPa NNW 21.9 km/h 46.5 km/h 46% 0.0 mm 289 W/m2
18:31 22.1 °C 10.6 °C 991.8 hPa North 11.1 km/h 46.5 km/h 48% 0.0 mm 271 W/m2
18:36 22.1 °C 9.9 °C 992.1 hPa North 20.9 km/h 46.5 km/h 46% 0.0 mm 257 W/m2
18:41 22.0 °C 9.9 °C 992.1 hPa North 19.5 km/h 46.5 km/h 46% 0.0 mm 233 W/m2
18:46 21.7 °C 10.2 °C 992.1 hPa NNW 15.8 km/h 50.0 km/h 48% 0.0 mm 232 W/m2
18:51 21.6 °C 10.1 °C 992.4 hPa NNW 20.9 km/h 50.0 km/h 48% 0.0 mm 221 W/m2
19:09 20.8 °C 10.6 °C 992.8 hPa North 19.5 km/h 33.1 km/h 52% 0.0 mm 50 W/m2
19:14 20.6 °C 9.5 °C 992.8 hPa NNW 24.5 km/h 43.9 km/h 49% 0.0 mm 52 W/m2
19:19 20.3 °C 9.8 °C 992.8 hPa NNW 24.5 km/h 43.9 km/h 51% 0.0 mm 54 W/m2
19:24 20.1 °C 10.2 °C 992.4 hPa NW 30.6 km/h 43.9 km/h 53% 0.0 mm 56 W/m2
19:29 20.0 °C 10.2 °C 992.4 hPa NW 21.9 km/h 42.8 km/h 53% 0.0 mm 59 W/m2
19:34 20.0 °C 10.2 °C 992.4 hPa NW 17.2 km/h 42.8 km/h 53% 0.0 mm 45 W/m2
19:39 19.9 °C 10.3 °C 992.8 hPa NW 29.4 km/h 39.3 km/h 54% 0.0 mm 53 W/m2
19:44 19.8 °C 10.2 °C 992.8 hPa NW 24.5 km/h 39.3 km/h 54% 0.0 mm 38 W/m2
19:49 19.6 °C 10.1 °C 992.8 hPa NW 23.3 km/h 40.4 km/h 54% 0.0 mm 39 W/m2
19:54 19.5 °C 9.9 °C 993.1 hPa NNW 12.2 km/h 40.4 km/h 54% 0.0 mm 34 W/m2
19:59 19.5 °C 9.9 °C 993.1 hPa NNW 13.4 km/h 37.8 km/h 54% 0.0 mm 30 W/m2
20:04 19.5 °C 9.9 °C 993.5 hPa North 14.8 km/h 35.6 km/h 54% 0.0 mm 17 W/m2
20:09 19.4 °C 9.9 °C 993.1 hPa North 18.3 km/h 28.0 km/h 54% 0.0 mm 13 W/m2
20:25 19.4 °C 9.6 °C 993.1 hPa NNW 13.4 km/h 43.9 km/h 53% 0.0 mm 4 W/m2
20:30 19.2 °C 9.7 °C 993.5 hPa North 13.4 km/h 34.3 km/h 54% 0.0 mm 1 W/m2
20:35 19.2 °C 9.7 °C 993.5 hPa North 20.9 km/h 35.6 km/h 54% 0.0 mm 0 W/m2
20:40 19.1 °C 9.8 °C 993.5 hPa NNW 17.2 km/h 35.6 km/h 55% 0.0 mm 0 W/m2
20:45 19.0 °C 9.5 °C 993.8 hPa NNW 18.3 km/h 30.6 km/h 54% 0.0 mm 0 W/m2
20:50 19.0 °C 9.8 °C 993.8 hPa NNW 20.9 km/h 42.8 km/h 55% 0.0 mm 0 W/m2
20:55 18.9 °C 9.9 °C 993.5 hPa NNW 13.4 km/h 42.8 km/h 56% 0.0 mm 0 W/m2
21:00 19.3 °C 9.8 °C 993.8 hPa NNW 15.8 km/h 33.1 km/h 54% 0.0 mm 0 W/m2
21:05 18.9 °C 9.7 °C 993.8 hPa NNW 19.5 km/h 36.7 km/h 55% 0.0 mm 0 W/m2
21:10 18.8 °C 9.6 °C 994.1 hPa NNW 25.6 km/h 36.7 km/h 55% 0.0 mm 0 W/m2
21:15 18.8 °C 9.8 °C 994.1 hPa NNW 15.8 km/h 36.7 km/h 56% 0.0 mm 0 W/m2
21:20 18.9 °C 9.9 °C 994.5 hPa NNW 13.4 km/h 31.7 km/h 56% 0.0 mm 0 W/m2
21:25 18.7 °C 9.8 °C 994.1 hPa NNW 19.5 km/h 35.6 km/h 56% 0.0 mm 0 W/m2
21:30 18.6 °C 9.4 °C 994.1 hPa NW 21.9 km/h 36.7 km/h 55% 0.0 mm 0 W/m2
21:35 18.5 °C 9.3 °C 994.5 hPa NNW 24.5 km/h 36.7 km/h 55% 0.0 mm 0 W/m2
21:40 18.8 °C 9.6 °C 994.1 hPa NW 20.9 km/h 42.8 km/h 55% 0.0 mm 0 W/m2
21:45 18.5 °C 9.3 °C 994.1 hPa NW 20.9 km/h 42.8 km/h 55% 0.0 mm 0 W/m2
21:50 18.4 °C 9.2 °C 994.5 hPa NW 13.4 km/h 36.7 km/h 55% 0.0 mm 0 W/m2
22:09 18.3 °C 9.1 °C 994.8 hPa NW 18.3 km/h 33.1 km/h 55% 0.0 mm 0 W/m2
22:14 18.2 °C 9.0 °C 994.8 hPa NNW 23.3 km/h 34.3 km/h 55% 0.0 mm 0 W/m2
22:19 18.3 °C 9.1 °C 994.8 hPa NW 14.8 km/h 34.3 km/h 55% 0.0 mm 0 W/m2
22:24 18.3 °C 9.1 °C 994.8 hPa NW 14.8 km/h 29.4 km/h 55% 0.0 mm 0 W/m2
22:29 18.1 °C 9.2 °C 994.8 hPa NW 9.7 km/h 29.4 km/h 56% 0.0 mm 0 W/m2
22:34 18.1 °C 9.2 °C 994.8 hPa NNW 11.1 km/h 29.4 km/h 56% 0.0 mm 0 W/m2
22:39 18.2 °C 9.0 °C 995.1 hPa NNW 18.3 km/h 30.6 km/h 55% 0.0 mm 0 W/m2
22:44 18.3 °C 9.1 °C 994.8 hPa NNW 15.8 km/h 30.6 km/h 55% 0.0 mm 0 W/m2
23:01 17.9 °C 9.0 °C 994.8 hPa NNW 11.1 km/h 30.6 km/h 56% 0.0 mm 0 W/m2
23:06 17.9 °C 9.0 °C 994.8 hPa NNW 23.3 km/h 30.6 km/h 56% 0.0 mm 0 W/m2
23:11 17.7 °C 9.1 °C 994.8 hPa NNW 17.2 km/h 30.6 km/h 57% 0.0 mm 0 W/m2
23:16 17.6 °C 9.0 °C 994.8 hPa NNW 18.3 km/h 30.6 km/h 57% 0.0 mm 0 W/m2
23:21 17.6 °C 9.0 °C 994.5 hPa NNW 13.4 km/h 28.0 km/h 57% 0.0 mm 0 W/m2
23:26 17.5 °C 8.9 °C 994.8 hPa NNW 11.1 km/h 23.3 km/h 57% 0.0 mm 0 W/m2
23:31 17.5 °C 8.9 °C 995.1 hPa NNW 11.1 km/h 24.5 km/h 57% 0.0 mm 0 W/m2
23:36 17.8 °C 8.9 °C 995.1 hPa NNW 14.8 km/h 36.7 km/h 56% 0.0 mm 0 W/m2
23:41 17.8 °C 8.9 °C 995.1 hPa NW 3.5 km/h 36.7 km/h 56% 0.0 mm 0 W/m2
23:46 17.7 °C 8.8 °C 995.5 hPa NW 8.7 km/h 23.3 km/h 56% 0.0 mm 0 W/m2
23:51 17.8 °C 8.9 °C 995.1 hPa NW 11.1 km/h 30.6 km/h 56% 0.0 mm 0 W/m2
23:56 18.0 °C 9.1 °C 995.1 hPa NNW 8.7 km/h 30.6 km/h 56% 0.0 mm 0 W/m2
Northern Hawkes Bay. New Zealand Historic Data
Compliments of Weather Underground - 2.25 mb